Time;durP1;ratioP1;P1;durP2;ratioP2;P2;SDS_P1;SDS_P2;PMS_P1;PMS_P2;Temp;Humidity;BMP_temperature;BMP_pressure;BME280_temperature;BME280_humidity;BME280_pressure;Samples;Min_cycle;Max_cycle;Signal;HPM_P1;HPM_P2
2022/04/30 00:01:06;;;;;;;17.73;15.30;;;;;;;;;;781221;74;26166;-72
2022/04/30 00:02:11;;;;;;;18.30;15.40;;;;;;;;;;756256;77;26325;-73
2022/04/30 00:03:15;;;;;;;18.30;15.28;;;;;;;;;;756675;77;26271;-71
2022/04/30 00:04:18;;;;;;;19.92;16.87;;;;;;;;;;776193;75;26676;-72
2022/04/30 00:05:21;;;;;;;17.52;14.95;;;;;;;;;;777277;75;26308;-72
2022/04/30 00:06:25;;;;;;;17.85;14.75;;;;;;;;;;776548;75;26249;-73
2022/04/30 00:07:28;;;;;;;18.75;14.85;;;;;;;;;;774877;75;26329;-72
2022/04/30 00:08:35;;;;;;;18.10;15.08;;;;;;;;;;766474;76;26386;-73
2022/04/30 00:09:39;;;;;;;19.25;14.98;;;;;;;;;;761203;76;26244;-72
2022/04/30 00:10:42;;;;;;;19.55;15.83;;;;;;;;;;776942;75;26782;-74
2022/04/30 00:11:45;;;;;;;21.02;15.55;;;;;;;;;;768964;76;26702;-73
2022/04/30 00:12:48;;;;;;;20.43;15.83;;;;;;;;;;753051;78;26272;-73
2022/04/30 00:13:51;;;;;;;17.65;15.35;;;;;;;;;;787705;75;26252;-73
2022/04/30 00:14:55;;;;;;;19.60;16.42;;;;;;;;;;762552;76;26669;-75
2022/04/30 00:15:59;;;;;;;17.82;15.93;;;;;;;;;;758425;76;26268;-73
2022/04/30 00:17:02;;;;;;;18.98;15.20;;;;;;;;;;766117;76;26268;-72
2022/04/30 00:18:05;;;;;;;18.98;15.58;;;;;;;;;;760588;76;26386;-72
2022/04/30 00:19:09;;;;;;;21.35;16.05;;;;;;;;;;761759;76;26705;-73
2022/04/30 00:20:15;;;;;;;16.23;14.13;;;;;;;;;;766279;76;26692;-73
2022/04/30 00:21:18;;;;;;;21.25;15.10;;;;;;;;;;761732;77;26736;-73
2022/04/30 00:22:22;;;;;;;18.07;15.05;;;;;;;;;;762396;76;26326;-73
2022/04/30 00:23:27;;;;;;;19.50;16.00;;;;;;;;;;779436;75;26316;-73
2022/04/30 00:24:30;;;;;;;17.98;15.78;;;;;;;;;;775628;75;26253;-74
2022/04/30 00:25:35;;;;;;;18.27;15.58;;;;;;;;;;782295;75;26371;-72
2022/04/30 00:26:38;;;;;;;19.60;15.40;;;;;;;;;;776161;75;26317;-72
2022/04/30 00:27:43;;;;;;;21.30;16.45;;;;;;;;;;774216;75;26308;-73
2022/04/30 00:28:49;;;;;;;16.90;14.98;;;;;;;;;;778219;75;26258;-72
2022/04/30 00:29:55;;;;;;;22.45;16.95;;;;;;;;;;774177;76;26238;-72
2022/04/30 00:31:02;;;;;;;20.45;16.42;;;;;;;;;;772510;75;26738;-73
2022/04/30 00:32:08;;;;;;;16.75;14.20;;;;;;;;;;772064;75;26302;-72
2022/04/30 00:33:12;;;;;;;19.20;16.40;;;;;;;;;;780575;75;26255;-74
2022/04/30 00:34:19;;;;;;;21.07;16.80;;;;;;;;;;770263;77;26253;-74
2022/04/30 00:35:24;;;;;;;19.60;16.15;;;;;;;;;;761822;77;26316;-74
2022/04/30 00:36:31;;;;;;;19.57;15.38;;;;;;;;;;756316;77;26244;-72
2022/04/30 00:37:35;;;;;;;19.55;16.25;;;;;;;;;;786871;75;26254;-72
2022/04/30 00:38:38;;;;;;;20.23;15.68;;;;;;;;;;760882;77;26268;-74
2022/04/30 00:39:42;;;;;;;19.98;16.15;;;;;;;;;;760051;76;26345;-75
2022/04/30 00:41:56;;;;;;;19.85;16.23;;;;;;;;;;741126;79;26725;-73
2022/04/30 00:43:00;;;;;;;22.00;15.53;;;;;;;;;;765490;77;26273;-73
2022/04/30 00:44:04;;;;;;;17.55;15.00;;;;;;;;;;784718;75;26307;-72
2022/04/30 00:45:11;;;;;;;17.80;15.00;;;;;;;;;;780451;75;26257;-72
2022/04/30 00:46:18;;;;;;;17.40;15.00;;;;;;;;;;771800;75;26409;-73
2022/04/30 00:47:21;;;;;;;18.75;15.40;;;;;;;;;;781082;75;26679;-74
2022/04/30 00:48:24;;;;;;;19.82;16.12;;;;;;;;;;783514;75;26250;-72
2022/04/30 00:49:28;;;;;;;18.40;15.70;;;;;;;;;;780041;75;26299;-72
2022/04/30 00:50:36;;;;;;;18.95;15.63;;;;;;;;;;781705;75;26677;-72
2022/04/30 00:51:40;;;;;;;19.40;15.75;;;;;;;;;;787525;75;26741;-72
2022/04/30 00:52:46;;;;;;;18.12;15.38;;;;;;;;;;771710;77;26248;-74
2022/04/30 00:53:58;;;;;;;18.62;15.48;;;;;;;;;;763013;77;26264;-73
2022/04/30 00:54:59;;;;;;;19.67;16.12;;;;;;;;;;775239;75;26323;-71
2022/04/30 00:56:04;;;;;;;19.20;16.48;;;;;;;;;;768179;75;26250;-72
2022/04/30 00:57:09;;;;;;;20.10;15.78;;;;;;;;;;772846;75;26311;-72
2022/04/30 00:58:16;;;;;;;18.75;15.90;;;;;;;;;;771986;75;26254;-72
2022/04/30 00:59:21;;;;;;;16.20;14.45;;;;;;;;;;781143;75;26304;-73
2022/04/30 01:00:27;;;;;;;19.45;15.78;;;;;;;;;;766467;77;26275;-73
2022/04/30 01:01:34;;;;;;;17.45;15.00;;;;;;;;;;753586;78;26271;-73
2022/04/30 01:02:38;;;;;;;18.52;15.45;;;;;;;;;;767424;77;26734;-72
2022/04/30 01:03:46;;;;;;;18.67;14.83;;;;;;;;;;757441;77;26276;-75
2022/04/30 01:04:49;;;;;;;17.85;14.75;;;;;;;;;;744271;78;26711;-72
2022/04/30 01:05:55;;;;;;;18.45;15.08;;;;;;;;;;767311;76;26760;-72
2022/04/30 01:07:05;;;;;;;16.57;14.55;;;;;;;;;;768048;77;26272;-72
2022/04/30 01:08:11;;;;;;;20.43;14.63;;;;;;;;;;749038;78;26432;-72
2022/04/30 01:12:23;;;;;;;15.60;13.60;;;;;;;;;;761292;74;26220;-72
2022/04/30 01:13:28;;;;;;;18.02;13.62;;;;;;;;;;765273;75;26811;-71
2022/04/30 01:14:31;;;;;;;15.95;13.72;;;;;;;;;;766860;75;26268;-72
2022/04/30 01:15:35;;;;;;;18.50;15.13;;;;;;;;;;768608;75;26703;-73
2022/04/30 01:16:38;;;;;;;14.85;13.25;;;;;;;;;;766866;75;26276;-72
2022/04/30 01:17:44;;;;;;;16.17;14.10;;;;;;;;;;772480;75;26266;-73
2022/04/30 01:18:47;;;;;;;15.65;13.75;;;;;;;;;;768146;75;26382;-72
2022/04/30 01:19:54;;;;;;;17.62;13.38;;;;;;;;;;753417;75;26312;-73
2022/04/30 01:21:03;;;;;;;16.65;13.90;;;;;;;;;;765153;74;26734;-72
2022/04/30 01:22:09;;;;;;;16.73;13.43;;;;;;;;;;760727;75;26711;-73
2022/04/30 01:23:15;;;;;;;13.90;12.43;;;;;;;;;;769382;75;26321;-72
2022/04/30 01:24:23;;;;;;;18.15;13.03;;;;;;;;;;769752;75;26437;-74
2022/04/30 01:25:30;;;;;;;18.95;14.13;;;;;;;;;;768404;75;26264;-74
2022/04/30 01:26:39;;;;;;;16.05;12.78;;;;;;;;;;764446;75;26712;-73
2022/04/30 01:27:46;;;;;;;16.93;13.40;;;;;;;;;;769251;74;26256;-73
2022/04/30 01:28:59;;;;;;;17.73;13.65;;;;;;;;;;777127;74;26696;-74
2022/04/30 01:30:04;;;;;;;14.65;13.00;;;;;;;;;;771306;75;26820;-74
2022/04/30 01:37:22;;;;;;;15.63;12.75;;;;;;;;;;767338;76;26270;-72
2022/04/30 01:38:10;;;;;;;14.05;12.05;;;;;;;;;;756694;75;26816;-72
2022/04/30 01:42:19;;;;;;;13.55;11.80;;;;;;;;;;754846;75;26226;-73
2022/04/30 01:43:25;;;;;;;15.43;11.78;;;;;;;;;;750982;76;26784;-72
2022/04/30 01:44:29;;;;;;;13.58;11.80;;;;;;;;;;760999;76;26682;-72
2022/04/30 01:45:33;;;;;;;13.25;11.70;;;;;;;;;;757527;77;26268;-73
2022/04/30 01:46:38;;;;;;;14.50;11.93;;;;;;;;;;752275;75;26348;-72
2022/04/30 01:47:43;;;;;;;14.47;12.65;;;;;;;;;;756297;76;26262;-74
2022/04/30 01:48:46;;;;;;;13.18;11.35;;;;;;;;;;754617;76;26275;-72
2022/04/30 01:49:49;;;;;;;14.00;11.80;;;;;;;;;;753529;75;26321;-71
2022/04/30 01:50:52;;;;;;;14.70;11.40;;;;;;;;;;753316;76;26275;-75
2022/04/30 01:51:55;;;;;;;14.07;12.40;;;;;;;;;;757314;77;26284;-73
2022/04/30 01:52:58;;;;;;;12.90;11.22;;;;;;;;;;760852;76;26330;-72
2022/04/30 02:01:53;;;;;;;16.23;12.98;;;;;;;;;;750593;78;26196;-72
2022/04/30 02:03:04;;;;;;;16.07;12.05;;;;;;;;;;754751;77;26753;-71
2022/04/30 02:04:10;;;;;;;14.25;12.20;;;;;;;;;;765004;76;26375;-72
2022/04/30 02:05:18;;;;;;;15.23;12.75;;;;;;;;;;764082;76;26332;-72
2022/04/30 02:06:21;;;;;;;15.53;13.72;;;;;;;;;;751320;77;26671;-72
2022/04/30 02:07:28;;;;;;;14.50;13.00;;;;;;;;;;752804;77;26264;-72
2022/04/30 02:08:33;;;;;;;15.18;13.35;;;;;;;;;;764264;77;26734;-73
2022/04/30 02:09:35;;;;;;;15.18;12.85;;;;;;;;;;751387;77;26251;-72
2022/04/30 02:10:40;;;;;;;15.28;13.25;;;;;;;;;;764386;76;26696;-72
2022/04/30 02:11:43;;;;;;;14.73;12.95;;;;;;;;;;753277;75;26325;-72
2022/04/30 02:12:46;;;;;;;14.35;12.65;;;;;;;;;;765897;77;26431;-72
2022/04/30 02:13:53;;;;;;;17.00;12.30;;;;;;;;;;764378;75;26262;-71
2022/04/30 02:14:59;;;;;;;16.23;12.82;;;;;;;;;;753298;77;26316;-71
2022/04/30 02:16:03;;;;;;;15.80;13.50;;;;;;;;;;768105;77;26433;-72
2022/04/30 02:17:08;;;;;;;14.40;12.53;;;;;;;;;;762626;77;26671;-73
2022/04/30 02:18:14;;;;;;;15.88;12.90;;;;;;;;;;759140;77;26315;-72
2022/04/30 02:19:18;;;;;;;14.03;11.40;;;;;;;;;;761541;77;26442;-73
2022/04/30 02:20:33;;;;;;;15.83;13.20;;;;;;;;;;750744;77;26246;-72
2022/04/30 02:21:35;;;;;;;13.83;12.05;;;;;;;;;;758032;76;26256;-71
2022/04/30 02:22:39;;;;;;;13.32;11.93;;;;;;;;;;763216;75;26249;-72
2022/04/30 02:23:44;;;;;;;14.13;12.05;;;;;;;;;;770327;76;26319;-72
2022/04/30 02:25:21;;;;;;;15.60;12.75;;;;;;;;;;749408;76;26690;-73
2022/04/30 02:26:27;;;;;;;14.30;11.88;;;;;;;;;;723614;80;26380;-73
2022/04/30 02:27:31;;;;;;;14.58;11.95;;;;;;;;;;727194;79;26351;-74
2022/04/30 02:28:36;;;;;;;14.83;12.35;;;;;;;;;;728200;80;26803;-72
2022/04/30 02:29:39;;;;;;;14.00;12.50;;;;;;;;;;729010;80;26402;-72
2022/04/30 02:30:43;;;;;;;14.58;12.50;;;;;;;;;;735767;80;26778;-71
2022/04/30 02:31:47;;;;;;;13.53;11.03;;;;;;;;;;730384;80;26828;-73
2022/04/30 02:32:51;;;;;;;14.58;12.15;;;;;;;;;;726944;80;26376;-73
2022/04/30 02:34:00;;;;;;;13.45;11.50;;;;;;;;;;732085;80;26364;-71
2022/04/30 02:35:05;;;;;;;15.15;12.03;;;;;;;;;;732486;79;26336;-72
2022/04/30 02:36:13;;;;;;;16.80;12.68;;;;;;;;;;737404;80;26285;-73
2022/04/30 02:37:16;;;;;;;14.43;12.05;;;;;;;;;;735211;79;26452;-72
2022/04/30 02:38:19;;;;;;;13.28;11.53;;;;;;;;;;744804;77;26413;-72
2022/04/30 02:39:23;;;;;;;13.48;11.57;;;;;;;;;;739506;79;26268;-71
2022/04/30 02:40:27;;;;;;;16.90;12.37;;;;;;;;;;729977;80;26294;-75
2022/04/30 02:41:30;;;;;;;15.15;12.00;;;;;;;;;;723415;80;26711;-71
2022/04/30 02:42:34;;;;;;;14.30;12.28;;;;;;;;;;729091;80;27156;-71
2022/04/30 02:43:38;;;;;;;15.75;12.53;;;;;;;;;;733413;80;26562;-71
2022/04/30 02:44:41;;;;;;;12.80;11.50;;;;;;;;;;729768;80;26334;-72
2022/04/30 02:54:15;;;;;;;15.13;11.43;;;;;;;;;;753166;77;26618;-71
2022/04/30 02:55:19;;;;;;;13.38;11.28;;;;;;;;;;743604;78;26702;-70
2022/04/30 02:56:23;;;;;;;13.70;11.65;;;;;;;;;;746590;78;26732;-71
2022/04/30 02:57:27;;;;;;;13.98;12.07;;;;;;;;;;733449;79;26733;-72
2022/04/30 03:00:05;;;;;;;14.20;11.93;;;;;;;;;;747761;78;26733;-72
2022/04/30 03:01:08;;;;;;;14.65;11.63;;;;;;;;;;747780;77;26282;-70
2022/04/30 03:02:12;;;;;;;12.93;11.57;;;;;;;;;;753394;77;26300;-71
2022/04/30 03:03:19;;;;;;;12.88;11.40;;;;;;;;;;752464;78;26253;-71
2022/04/30 03:04:23;;;;;;;15.10;12.78;;;;;;;;;;744480;77;26711;-72
2022/04/30 03:05:27;;;;;;;14.23;12.15;;;;;;;;;;721515;80;26761;-72
2022/04/30 03:06:32;;;;;;;15.38;12.50;;;;;;;;;;729461;79;26312;-72
2022/04/30 03:07:37;;;;;;;17.62;13.38;;;;;;;;;;747486;77;26344;-71
2022/04/30 03:08:39;;;;;;;14.18;12.10;;;;;;;;;;741556;78;26299;-71
2022/04/30 03:09:42;;;;;;;13.43;12.03;;;;;;;;;;743485;78;26686;-71
2022/04/30 03:10:47;;;;;;;14.53;12.55;;;;;;;;;;749034;78;26233;-74
2022/04/30 03:11:49;;;;;;;13.10;11.45;;;;;;;;;;738510;79;26359;-71
2022/04/30 03:12:52;;;;;;;15.20;12.68;;;;;;;;;;740953;78;26286;-72
2022/04/30 03:13:56;;;;;;;14.45;11.75;;;;;;;;;;748720;77;26241;-73
2022/04/30 03:14:59;;;;;;;12.98;11.63;;;;;;;;;;744088;77;26315;-71
2022/04/30 03:21:41;;;;;;;14.93;12.47;;;;;;;;;;744633;77;26892;-72
2022/04/30 03:22:35;;;;;;;15.05;12.25;;;;;;;;;;733186;80;26484;-71
2022/04/30 03:23:40;;;;;;;14.80;11.30;;;;;;;;;;743883;77;26295;-71
2022/04/30 03:24:45;;;;;;;15.10;11.85;;;;;;;;;;736706;78;26344;-72
2022/04/30 03:25:48;;;;;;;15.80;12.60;;;;;;;;;;740345;77;26395;-71
2022/04/30 03:26:51;;;;;;;14.60;12.13;;;;;;;;;;738207;78;26291;-71
2022/04/30 03:27:54;;;;;;;15.20;12.35;;;;;;;;;;742020;78;26341;-72
2022/04/30 03:28:57;;;;;;;12.88;11.50;;;;;;;;;;740638;78;26360;-71
2022/04/30 03:30:00;;;;;;;13.48;12.05;;;;;;;;;;743724;78;26315;-72
2022/04/30 03:31:04;;;;;;;13.78;11.45;;;;;;;;;;721529;80;26309;-70
2022/04/30 03:32:08;;;;;;;13.45;11.78;;;;;;;;;;747050;78;26289;-72
2022/04/30 03:33:12;;;;;;;13.40;12.00;;;;;;;;;;752620;78;26241;-71
2022/04/30 03:41:55;;;;;;;13.45;11.70;;;;;;;;;;752487;76;26308;-73
2022/04/30 03:42:58;;;;;;;12.98;11.45;;;;;;;;;;750763;76;26307;-71
2022/04/30 03:44:02;;;;;;;13.45;11.95;;;;;;;;;;760207;76;26374;-71
2022/04/30 03:45:07;;;;;;;13.38;11.33;;;;;;;;;;757810;76;26762;-72
2022/04/30 03:46:10;;;;;;;13.38;11.43;;;;;;;;;;751478;76;26279;-73
2022/04/30 03:47:15;;;;;;;14.40;11.70;;;;;;;;;;748161;77;26259;-72
2022/04/30 03:48:18;;;;;;;12.75;11.45;;;;;;;;;;744573;78;26338;-72
2022/04/30 03:49:21;;;;;;;12.82;11.33;;;;;;;;;;746280;77;26385;-72
2022/04/30 03:50:25;;;;;;;12.88;10.58;;;;;;;;;;752835;78;26275;-72
2022/04/30 03:51:29;;;;;;;14.68;11.95;;;;;;;;;;751263;77;26375;-71
2022/04/30 03:52:34;;;;;;;13.03;11.63;;;;;;;;;;749331;77;26278;-73
2022/04/30 03:53:36;;;;;;;13.98;11.93;;;;;;;;;;752612;78;26344;-74
2022/04/30 03:54:40;;;;;;;13.00;11.75;;;;;;;;;;751964;77;26278;-72
2022/04/30 03:55:43;;;;;;;14.63;12.40;;;;;;;;;;750570;77;26367;-70
2022/04/30 03:56:48;;;;;;;11.83;10.70;;;;;;;;;;750678;77;26273;-70
2022/04/30 03:57:53;;;;;;;14.50;11.73;;;;;;;;;;750296;77;26278;-71
2022/04/30 03:58:56;;;;;;;12.95;11.55;;;;;;;;;;747170;77;26345;-71
2022/04/30 04:00:02;;;;;;;13.28;11.90;;;;;;;;;;749395;77;26730;-71
2022/04/30 04:01:04;;;;;;;16.75;11.55;;;;;;;;;;738304;80;26710;-73
2022/04/30 04:02:07;;;;;;;14.73;12.03;;;;;;;;;;761195;77;26271;-71
2022/04/30 04:03:12;;;;;;;14.95;11.80;;;;;;;;;;759824;77;26325;-71
2022/04/30 04:04:15;;;;;;;12.90;11.50;;;;;;;;;;765566;77;26705;-72
2022/04/30 04:05:18;;;;;;;11.97;10.70;;;;;;;;;;760817;77;26713;-71
2022/04/30 04:06:22;;;;;;;13.32;11.38;;;;;;;;;;755472;77;26259;-73
2022/04/30 04:07:30;;;;;;;13.93;12.43;;;;;;;;;;760967;77;26390;-72
2022/04/30 04:08:35;;;;;;;13.32;11.83;;;;;;;;;;752983;77;26320;-71
2022/04/30 04:09:38;;;;;;;14.20;11.80;;;;;;;;;;750051;78;26314;-72
2022/04/30 04:10:41;;;;;;;13.78;12.37;;;;;;;;;;755688;77;26265;-72
2022/04/30 04:11:44;;;;;;;13.22;11.88;;;;;;;;;;755360;77;26323;-72
2022/04/30 04:12:47;;;;;;;14.28;12.37;;;;;;;;;;753991;77;26263;-71
2022/04/30 04:17:53;;;;;;;12.70;11.40;;;;;;;;;;771317;75;26267;-71
2022/04/30 04:18:56;;;;;;;14.68;13.05;;;;;;;;;;767325;76;26713;-72
2022/04/30 04:20:02;;;;;;;15.28;13.68;;;;;;;;;;767676;76;26307;-71
2022/04/30 04:26:36;;;;;;;12.80;11.25;;;;;;;;;;781106;73;26660;-72
2022/04/30 04:27:39;;;;;;;14.35;12.85;;;;;;;;;;785816;74;26267;-71
2022/04/30 04:28:42;;;;;;;14.63;12.13;;;;;;;;;;789124;74;26860;-72
2022/04/30 04:29:46;;;;;;;13.13;11.00;;;;;;;;;;793285;73;26627;-71
2022/04/30 04:30:49;;;;;;;14.33;11.90;;;;;;;;;;794097;74;26292;-72
2022/04/30 04:31:55;;;;;;;17.02;11.63;;;;;;;;;;790388;74;26237;-70
2022/04/30 04:32:58;;;;;;;12.93;11.63;;;;;;;;;;793374;73;26673;-71
2022/04/30 04:34:03;;;;;;;14.10;12.05;;;;;;;;;;790115;74;26244;-71
2022/04/30 04:35:06;;;;;;;16.52;12.15;;;;;;;;;;793029;74;26659;-72
2022/04/30 04:36:09;;;;;;;13.68;12.28;;;;;;;;;;789970;74;26286;-72
2022/04/30 04:37:11;;;;;;;13.38;12.07;;;;;;;;;;791012;73;26302;-72
2022/04/30 04:38:14;;;;;;;14.40;11.83;;;;;;;;;;792699;73;26229;-71
2022/04/30 04:39:17;;;;;;;13.90;12.18;;;;;;;;;;792527;73;26304;-71
2022/04/30 04:40:20;;;;;;;13.50;11.65;;;;;;;;;;774191;75;26258;-73
2022/04/30 04:41:23;;;;;;;13.20;11.48;;;;;;;;;;765031;76;26715;-72
2022/04/30 04:42:26;;;;;;;13.68;12.30;;;;;;;;;;769965;76;26372;-71
2022/04/30 04:43:29;;;;;;;13.88;12.47;;;;;;;;;;763522;76;26806;-71
2022/04/30 04:44:32;;;;;;;13.65;11.85;;;;;;;;;;780673;75;26703;-71
2022/04/30 04:45:35;;;;;;;12.40;11.10;;;;;;;;;;788845;74;26229;-71
2022/04/30 04:46:41;;;;;;;11.95;10.65;;;;;;;;;;789669;74;26225;-71
2022/04/30 04:47:49;;;;;;;14.75;11.03;;;;;;;;;;792063;74;26654;-71
2022/04/30 04:48:50;;;;;;;13.45;12.15;;;;;;;;;;776928;73;26304;-72
2022/04/30 04:49:53;;;;;;;12.68;11.35;;;;;;;;;;780543;75;26657;-72
2022/04/30 04:50:58;;;;;;;12.28;11.08;;;;;;;;;;782221;74;26725;-71
2022/04/30 04:52:03;;;;;;;12.90;11.50;;;;;;;;;;780855;74;26462;-73
2022/04/30 04:53:09;;;;;;;13.45;12.03;;;;;;;;;;785623;74;26355;-72
2022/04/30 04:54:12;;;;;;;12.85;11.45;;;;;;;;;;781942;74;26261;-71
2022/04/30 04:55:20;;;;;;;15.08;12.40;;;;;;;;;;776313;74;26246;-72
2022/04/30 04:56:23;;;;;;;14.23;12.73;;;;;;;;;;777618;74;26248;-72
2022/04/30 04:57:29;;;;;;;13.95;12.50;;;;;;;;;;785353;74;26312;-73
2022/04/30 04:58:31;;;;;;;13.85;12.45;;;;;;;;;;784498;73;26378;-72
2022/04/30 04:59:35;;;;;;;14.87;13.38;;;;;;;;;;778272;74;26303;-72
2022/04/30 05:00:39;;;;;;;14.18;12.65;;;;;;;;;;786128;74;26359;-72
2022/04/30 05:01:44;;;;;;;15.43;13.20;;;;;;;;;;781049;75;26333;-71
2022/04/30 05:02:48;;;;;;;13.53;12.13;;;;;;;;;;774496;74;26667;-71
2022/04/30 05:03:51;;;;;;;14.65;13.10;;;;;;;;;;772833;74;26313;-73
2022/04/30 05:04:54;;;;;;;13.13;11.73;;;;;;;;;;788623;74;26245;-73
2022/04/30 05:06:03;;;;;;;14.13;12.70;;;;;;;;;;795184;72;26225;-70
2022/04/30 05:07:06;;;;;;;13.53;12.13;;;;;;;;;;795812;72;26226;-72
2022/04/30 05:15:07;;;;;;;13.38;11.97;;;;;;;;;;770397;75;26320;-72
2022/04/30 05:16:11;;;;;;;14.00;11.75;;;;;;;;;;764065;76;26267;-72
2022/04/30 05:17:15;;;;;;;12.73;11.43;;;;;;;;;;782237;75;26446;-72
2022/04/30 05:18:20;;;;;;;13.13;11.78;;;;;;;;;;782181;74;26305;-72
2022/04/30 05:19:27;;;;;;;13.18;11.88;;;;;;;;;;775503;76;26320;-71
2022/04/30 05:20:30;;;;;;;12.95;11.63;;;;;;;;;;784568;74;26296;-72
2022/04/30 05:21:38;;;;;;;13.18;11.73;;;;;;;;;;768471;75;26308;-72
2022/04/30 05:22:42;;;;;;;13.90;12.37;;;;;;;;;;784946;74;26254;-71
2022/04/30 05:23:53;;;;;;;12.65;11.30;;;;;;;;;;783307;74;26313;-72
2022/04/30 05:24:57;;;;;;;13.68;12.28;;;;;;;;;;776598;75;26242;-73
2022/04/30 05:26:04;;;;;;;13.03;11.63;;;;;;;;;;787583;74;26320;-71
2022/04/30 05:27:08;;;;;;;12.58;11.30;;;;;;;;;;788823;75;26258;-71
2022/04/30 05:28:13;;;;;;;12.55;11.33;;;;;;;;;;782865;74;26231;-73
2022/04/30 05:29:16;;;;;;;12.55;11.30;;;;;;;;;;763660;75;26320;-71
2022/04/30 05:30:24;;;;;;;15.83;11.48;;;;;;;;;;786870;74;26936;-71
2022/04/30 05:31:27;;;;;;;13.68;12.28;;;;;;;;;;783780;75;26242;-72
2022/04/30 05:32:31;;;;;;;14.55;13.00;;;;;;;;;;784631;75;26362;-73
2022/04/30 05:35:09;;;;;;;13.50;12.15;;;;;;;;;;782092;75;26488;-73
2022/04/30 05:36:13;;;;;;;13.32;11.70;;;;;;;;;;772711;75;26262;-72
2022/04/30 05:37:16;;;;;;;13.85;11.33;;;;;;;;;;768997;76;26745;-73
2022/04/30 05:38:21;;;;;;;17.30;12.68;;;;;;;;;;777375;75;26272;-73
2022/04/30 05:39:25;;;;;;;14.95;13.50;;;;;;;;;;772274;75;26268;-72
2022/04/30 05:40:28;;;;;;;14.20;12.55;;;;;;;;;;770697;75;26729;-74
2022/04/30 05:41:32;;;;;;;18.12;14.23;;;;;;;;;;761115;75;26273;-74
2022/04/30 05:42:38;;;;;;;13.98;12.58;;;;;;;;;;766199;75;26249;-73
2022/04/30 05:43:41;;;;;;;16.37;13.03;;;;;;;;;;767331;76;26319;-73
2022/04/30 05:44:45;;;;;;;14.25;12.82;;;;;;;;;;770627;76;26331;-74
2022/04/30 05:45:50;;;;;;;15.70;13.72;;;;;;;;;;772127;76;26387;-72
2022/04/30 05:46:54;;;;;;;13.58;12.28;;;;;;;;;;771858;76;26265;-73
2022/04/30 05:47:58;;;;;;;14.45;12.95;;;;;;;;;;773035;76;26256;-73
2022/04/30 05:49:08;;;;;;;14.85;13.08;;;;;;;;;;778686;75;26376;-74
2022/04/30 05:50:12;;;;;;;14.07;12.65;;;;;;;;;;771083;76;26324;-74
2022/04/30 05:51:16;;;;;;;14.38;12.98;;;;;;;;;;772051;76;26214;-72
2022/04/30 05:52:22;;;;;;;14.10;12.53;;;;;;;;;;767553;76;26312;-73
2022/04/30 05:53:26;;;;;;;14.47;12.55;;;;;;;;;;775336;75;26227;-73
2022/04/30 05:54:30;;;;;;;14.90;13.40;;;;;;;;;;778106;75;26342;-72
2022/04/30 05:58:27;;;;;;;16.35;13.20;;;;;;;;;;791306;73;26799;-73
2022/04/30 05:59:32;;;;;;;15.23;13.13;;;;;;;;;;797836;73;26236;-72
2022/04/30 06:00:35;;;;;;;14.00;12.13;;;;;;;;;;788618;73;26233;-73
2022/04/30 06:01:38;;;;;;;14.87;13.38;;;;;;;;;;787026;74;26631;-72
2022/04/30 06:02:48;;;;;;;14.20;12.80;;;;;;;;;;753924;76;26756;-74
2022/04/30 06:03:55;;;;;;;16.40;14.27;;;;;;;;;;763358;77;26875;-76
2022/04/30 06:05:00;;;;;;;14.53;13.10;;;;;;;;;;775745;75;26562;-75
2022/04/30 06:06:06;;;;;;;16.60;13.50;;;;;;;;;;752981;76;26249;-76
2022/04/30 06:07:10;;;;;;;14.40;12.90;;;;;;;;;;761861;76;26874;-75
2022/04/30 06:08:14;;;;;;;17.07;13.88;;;;;;;;;;800917;73;26305;-75
2022/04/30 06:09:20;;;;;;;14.30;12.80;;;;;;;;;;790756;73;26657;-75
2022/04/30 06:10:32;;;;;;;15.25;13.65;;;;;;;;;;786906;73;26663;-73
2022/04/30 06:11:37;;;;;;;15.85;12.95;;;;;;;;;;795961;73;26282;-75
2022/04/30 06:12:44;;;;;;;13.22;10.72;;;;;;;;;;790754;73;26234;-76
2022/04/30 06:13:49;;;;;;;17.83;11.50;;;;;;;;;;793473;73;26242;-77
2022/04/30 06:14:54;;;;;;;11.70;10.47;;;;;;;;;;793881;73;26489;-75
2022/04/30 06:16:01;;;;;;;13.07;11.10;;;;;;;;;;798904;73;26444;-78
2022/04/30 06:17:06;;;;;;;17.85;12.90;;;;;;;;;;796955;73;26828;-77
2022/04/30 06:18:15;;;;;;;14.03;12.27;;;;;;;;;;788618;74;26732;-75
2022/04/30 06:19:16;;;;;;;14.30;12.80;;;;;;;;;;771403;74;26570;-77
2022/04/30 06:20:19;;;;;;;15.50;13.67;;;;;;;;;;789103;74;26498;-78
2022/04/30 06:21:31;;;;;;;17.53;15.03;;;;;;;;;;787336;74;26646;-77
2022/04/30 06:22:34;;;;;;;21.33;17.50;;;;;;;;;;800511;73;26459;-76
2022/04/30 06:23:40;;;;;;;18.80;16.30;;;;;;;;;;777274;75;26299;-76
2022/04/30 06:24:45;;;;;;;21.63;18.00;;;;;;;;;;784264;74;27064;-76
2022/04/30 06:25:49;;;;;;;20.20;17.93;;;;;;;;;;791829;73;26232;-78
2022/04/30 06:27:00;;;;;;;16.90;15.10;;;;;;;;;;777058;73;27261;-76
2022/04/30 06:28:04;;;;;;;16.45;14.75;;;;;;;;;;793666;73;26303;-76
2022/04/30 06:29:11;;;;;;;15.28;13.68;;;;;;;;;;792395;73;26225;-76
2022/04/30 06:30:17;;;;;;;14.07;12.65;;;;;;;;;;782136;74;26702;-77
2022/04/30 06:31:28;;;;;;;14.73;13.20;;;;;;;;;;786351;73;26291;-76
2022/04/30 06:32:36;;;;;;;15.55;13.90;;;;;;;;;;788486;74;26365;-77
2022/04/30 06:33:43;;;;;;;15.57;13.07;;;;;;;;;;764195;76;26712;-78
2022/04/30 06:34:46;;;;;;;14.70;13.00;;;;;;;;;;765036;76;26857;-78
2022/04/30 06:36:01;;;;;;;14.85;12.45;;;;;;;;;;757231;77;26446;-76
2022/04/30 06:37:25;;;;;;;16.73;13.00;;;;;;;;;;754341;76;26355;-76
2022/04/30 06:38:31;;;;;;;14.63;12.47;;;;;;;;;;789859;74;26233;-77
2022/04/30 06:39:35;;;;;;;12.90;11.60;;;;;;;;;;793853;73;26301;-76
2022/04/30 06:41:57;;;;;;;16.63;13.43;;;;;;;;;;767319;76;26711;-76
2022/04/30 06:48:25;;;;;;;15.40;11.93;;;;;;;;;;788996;74;26680;-75
2022/04/30 06:49:27;;;;;;;14.10;12.30;;;;;;;;;;786919;74;26374;-78
2022/04/30 06:50:33;;;;;;;15.40;13.10;;;;;;;;;;779244;75;27021;-77
2022/04/30 06:51:38;;;;;;;14.30;12.87;;;;;;;;;;787118;74;26951;-74
2022/04/30 06:57:25;;;;;;;13.67;12.27;;;;;;;;;;784505;74;26321;-75
2022/04/30 06:58:01;;;;;;;13.27;11.97;;;;;;;;;;779822;73;26779;-76
2022/04/30 06:59:13;;;;;;;13.23;11.83;;;;;;;;;;781213;74;27001;-77
2022/04/30 07:01:49;;;;;;;13.88;11.73;;;;;;;;;;788149;74;26364;-75
2022/04/30 07:02:49;;;;;;;14.18;12.78;;;;;;;;;;778096;74;26295;-76
2022/04/30 07:03:55;;;;;;;15.30;13.80;;;;;;;;;;783923;74;26326;-74
2022/04/30 07:04:59;;;;;;;13.35;11.93;;;;;;;;;;786958;75;26302;-75
2022/04/30 07:06:03;;;;;;;13.62;12.20;;;;;;;;;;785917;75;26312;-78
2022/04/30 07:07:07;;;;;;;13.72;12.10;;;;;;;;;;788109;75;26398;-76
2022/04/30 07:08:11;;;;;;;13.15;11.85;;;;;;;;;;772451;75;26421;-75
2022/04/30 07:09:13;;;;;;;12.40;11.10;;;;;;;;;;777190;75;26425;-75
2022/04/30 07:10:17;;;;;;;13.95;12.53;;;;;;;;;;778773;74;26750;-76
2022/04/30 07:11:20;;;;;;;74.58;61.55;;;;;;;;;;782607;74;26236;-76
2022/04/30 07:12:23;;;;;;;16.77;14.98;;;;;;;;;;780098;75;27421;-77
2022/04/30 07:13:26;;;;;;;14.20;12.70;;;;;;;;;;785669;73;26353;-77
2022/04/30 07:14:32;;;;;;;13.62;12.23;;;;;;;;;;781173;74;26299;-79
2022/04/30 07:15:36;;;;;;;12.47;11.28;;;;;;;;;;774542;75;26673;-76
2022/04/30 07:16:46;;;;;;;11.80;10.63;;;;;;;;;;782747;74;26323;-76
2022/04/30 07:17:48;;;;;;;13.53;11.33;;;;;;;;;;776977;75;26275;-76
2022/04/30 07:18:53;;;;;;;13.50;12.20;;;;;;;;;;775318;75;26240;-76
2022/04/30 07:19:56;;;;;;;12.73;11.43;;;;;;;;;;773576;75;26412;-75
2022/04/30 07:21:01;;;;;;;16.15;13.03;;;;;;;;;;772186;75;26413;-76
2022/04/30 07:22:11;;;;;;;12.35;11.05;;;;;;;;;;773943;74;26288;-80
2022/04/30 07:23:18;;;;;;;15.70;10.98;;;;;;;;;;771658;74;26244;-75
2022/04/30 07:24:20;;;;;;;12.13;10.93;;;;;;;;;;778276;75;26358;-74
2022/04/30 07:25:23;;;;;;;12.00;10.75;;;;;;;;;;774075;75;26244;-74
2022/04/30 07:26:26;;;;;;;11.55;10.28;;;;;;;;;;782470;74;26252;-75
2022/04/30 07:27:30;;;;;;;11.10;10.00;;;;;;;;;;783710;74;26271;-73
2022/04/30 07:28:35;;;;;;;10.98;9.98;;;;;;;;;;778855;74;26236;-79
2022/04/30 07:29:40;;;;;;;11.60;10.40;;;;;;;;;;776911;75;26244;-76
2022/04/30 07:33:24;;;;;;;12.80;11.43;;;;;;;;;;766563;76;26355;-73
2022/04/30 07:34:29;;;;;;;14.55;10.60;;;;;;;;;;767444;76;26254;-72
2022/04/30 07:35:34;;;;;;;11.63;10.45;;;;;;;;;;761365;77;26263;-80
2022/04/30 07:36:40;;;;;;;12.03;10.82;;;;;;;;;;759537;77;26723;-76
2022/04/30 07:37:45;;;;;;;12.68;11.30;;;;;;;;;;756312;77;26276;-74
2022/04/30 07:39:05;;;;;;;12.00;10.50;;;;;;;;;;754129;77;26324;-74
2022/04/30 07:40:08;;;;;;;12.25;10.60;;;;;;;;;;753069;77;26265;-72
2022/04/30 07:41:13;;;;;;;12.35;11.15;;;;;;;;;;760673;77;26718;-75
2022/04/30 07:42:19;;;;;;;12.50;11.20;;;;;;;;;;764800;77;26265;-72
2022/04/30 07:43:40;;;;;;;12.47;10.95;;;;;;;;;;750954;78;26363;-76
2022/04/30 07:44:50;;;;;;;13.45;11.57;;;;;;;;;;764213;77;26694;-76